Data for 03/25/2017

Time Sea-Level Adjusted Pressure Absolute Pressure Temperature Relative Humidity Dew Point   
(mb) (inHg) (mb) (inHg) (C) (F) (%) (C) (F)
00:05 1014 29.94 843 24.89 9.2 48.6 38 -4.2 24.4
00:10 1014 29.94 843 24.89 9.1 48.4 38 -4.4 24.1
00:15 1014 29.94 843 24.89 9.4 49 36 -5 23
00:20 1014 29.94 843 24.89 9.6 49.3 37 -4.2 24.5
00:25 1014 29.94 843 24.89 9.3 48.7 38 -4.2 24.5
00:30 1014 29.94 843 24.89 9.2 48.5 38 -4.3 24.3
00:35 1014 29.94 843 24.89 9.1 48.4 39 -4.1 24.7
00:40 1014 29.94 843 24.89 9.1 48.3 38 -4.5 24
00:45 1014 29.94 843 24.89 9.3 48.7 38 -4.3 24.3
00:50 1014 29.94 843 24.89 9.1 48.4 39 -4.1 24.6
00:55 1014 29.94 843 24.89 9 48.3 39 -4.2 24.4
01:00 1014 29.94 843 24.89 9.1 48.4 39 -4.1 24.7
01:05 1014 29.94 843 24.89 9.1 48.4 39 -3.9 24.9
01:10 1014 29.94 844 24.92 9.1 48.3 40 -3.8 25.2
01:15 1014 29.94 844 24.92 9.1 48.3 40 -3.8 25.2
01:20 1014 29.94 844 24.92 9.1 48.3 40 -3.7 25.4
01:25 1014 29.94 844 24.92 9.1 48.3 41 -3.6 25.6
01:30 1014 29.94 844 24.92 9 48.3 40 -3.7 25.3
01:35 1014 29.94 844 24.92 9.1 48.4 40 -3.6 25.5
01:40 1014 29.94 844 24.92 9.1 48.4 41 -3.4 25.8
01:45 1015 29.97 844 24.92 9 48.2 41 -3.4 25.9
01:50 1015 29.97 844 24.92 9 48.1 42 -3.2 26.3
01:55 1015 29.97 844 24.92 8.8 47.9 42 -3.2 26.2
02:00 1015 29.97 844 24.92 8.9 48 42 -3.3 26.1
02:05 1015 29.97 844 24.92 9 48.2 42 -3.3 26.1
02:10 1015 29.97 844 24.92 9.1 48.4 42 -3.2 26.3
02:15 1015 29.97 844 24.92 9.1 48.4 42 -3.1 26.4
02:20 1015 29.97 844 24.92 9.1 48.4 42 -3 26.6
02:25 1015 29.97 844 24.92 9.1 48.4 43 -2.9 26.7
02:30 1015 29.97 844 24.92 8.9 48 44 -2.7 27.1
02:35 1015 29.97 844 24.92 8.6 47.4 45 -2.7 27.1
02:40 1015 29.97 844 24.92 8.4 47.1 45 -2.7 27.2
02:45 1015 29.97 844 24.92 8.4 47 46 -2.5 27.4
02:50 1015 29.97 844 24.92 8.3 47 47 -2.3 27.9
02:55 1015 29.97 844 24.92 8.2 46.7 49 -1.9 28.5
03:00 1015 29.97 844 24.92 8 46.3 52 -1.4 29.5
03:05 1015 29.97 844 24.92 7.8 46 52 -1.4 29.5
03:10 1015 29.97 844 24.92 7.7 45.9 53 -1.3 29.7
03:15 1015 29.97 844 24.92 7.6 45.7 53 -1.3 29.7
03:20 1015 29.97 844 24.92 7.7 45.8 53 -1.3 29.6
03:25 1015 29.97 845 24.95 7.7 45.8 53 -1.4 29.5
03:30 1016 30 845 24.95 7.7 45.8 56 -0.6 30.9
03:35 1016 30 845 24.95 7.1 44.7 65 0.9 33.7
03:40 1016 30 845 24.95 6 42.7 73 1.6 34.8
03:45 1016 30 846 24.98 5.4 41.7 74 1.1 34
03:50 1016 30 846 24.98 5 40.9 74 0.8 33.4
03:55 1016 30 846 24.98 4.6 40.3 76 0.7 33.2
04:00 1017 30.03 846 24.98 4.3 39.8 78 0.9 33.6
04:05 1017 30.03 846 24.98 4.1 39.3 81 1.1 33.9
04:10 1016 30 846 24.98 3.9 39 82 1.1 34
04:15 1016 30 846 24.98 3.8 38.8 83 1.2 34.1
04:20 1017 30.03 846 24.98 3.8 38.8 85 1.4 34.5
04:25 1017 30.03 846 24.98 3.8 38.8 84 1.4 34.5
04:30 1017 30.03 846 24.98 3.7 38.7 85 1.5 34.6
04:35 1017 30.03 846 24.98 3.7 38.6 85 1.5 34.7
04:40 1017 30.03 846 24.98 3.3 37.9 89 1.7 35
04:45 1017 30.03 846 24.98 3.1 37.6 90 1.6 34.9
04:50 1017 30.03 846 24.98 3 37.5 90 1.6 34.8
04:55 1017 30.03 846 24.98 3.1 37.6 90 1.6 34.9
05:00 1017 30.03 846 24.98 3.2 37.8 90 1.7 35
05:05 1017 30.03 846 24.98 3.3 38 89 1.7 35
05:10 1017 30.03 846 24.98 3.2 37.8 88 1.5 34.7
05:15 1017 30.03 846 24.98 3.2 37.7 89 1.5 34.7
05:20 1017 30.03 846 24.98 3.2 37.7 89 1.5 34.7
05:25 1017 30.03 846 24.98 3.2 37.8 89 1.5 34.7
05:30 1017 30.03 846 24.98 3.3 37.9 89 1.6 34.9
05:35 1017 30.03 846 24.98 3.2 37.7 89 1.6 34.9
05:40 1017 30.03 846 24.98 3.2 37.7 90 1.6 35
05:45 1017 30.03 846 24.98 3 37.4 90 1.4 34.6
05:50 1017 30.03 846 24.98 2.8 37.1 90 1.3 34.3
05:55 1017 30.03 846 24.98 2.8 37.1 90 1.3 34.3
06:00 1017 30.03 846 24.98 2.8 37 89 1.2 34.1
06:05 1018 30.06 847 25.01 2.7 36.9 88 1 33.8
06:10 1018 30.06 847 25.01 2.7 36.8 89 1 33.8
06:15 1018 30.06 847 25.01 2.7 36.8 89 1 33.8
06:20 1018 30.06 847 25.01 2.6 36.7 88 0.9 33.6
06:25 1018 30.06 847 25.01 2.5 36.5 88 0.8 33.4
06:30 1018 30.06 847 25.01 2.4 36.3 89 0.7 33.2
06:35 1018 30.06 847 25.01 2.4 36.3 89 0.7 33.3
06:40 1018 30.06 847 25.01 2.4 36.3 89 0.7 33.3
06:45 1018 30.06 847 25.01 2.4 36.3 88 0.7 33.2
06:50 1018 30.06 847 25.01 2.6 36.6 87 0.6 33
06:55 1018 30.06 847 25.01 2.7 36.8 86 0.6 33.1
07:00 1018 30.06 847 25.01 2.7 36.8 86 0.5 33
07:05 1018 30.06 847 25.01 2.7 36.8 85 0.5 32.9
07:10 1018 30.06 847 25.01 2.6 36.7 87 0.6 33.1
07:15 1018 30.06 847 25.01 2.5 36.5 87 0.6 33.2
07:20 1017 30.03 847 25.01 2.5 36.5 87 0.6 33.1
07:25 1017 30.03 847 25.01 2.5 36.5 88 0.7 33.2
07:30 1018 30.06 847 25.01 2.6 36.7 87 0.7 33.3
07:35 1018 30.06 847 25.01 2.6 36.8 87 0.7 33.2
07:40 1018 30.06 847 25.01 2.7 36.8 87 0.7 33.2
07:45 1018 30.06 847 25.01 2.7 36.9 87 0.7 33.3
07:50 1018 30.06 847 25.01 2.9 37.2 86 0.7 33.3
07:55 1018 30.06 847 25.01 3.1 37.5 85 0.8 33.4
08:00 1018 30.06 847 25.01 3.1 37.7 84 0.8 33.4
08:05 1018 30.06 847 25.01 3.3 37.9 83 0.6 33.2
08:10 1018 30.06 847 25.01 3.4 38.1 82 0.7 33.2
08:15 1018 30.06 847 25.01 3.6 38.5 83 0.9 33.7
08:20 1018 30.06 847 25.01 3.8 38.9 81 0.9 33.7
08:25 1018 30.06 847 25.01 3.9 39.1 83 1.3 34.3
08:30 1018 30.06 847 25.01 4.1 39.3 83 1.4 34.6
08:35 1018 30.06 847 25.01 4 39.2 81 1.1 34
08:40 1018 30.06 847 25.01 4.2 39.6 82 1.4 34.6
08:45 1018 30.06 847 25.01 4.2 39.6 81 1.2 34.2
08:50 1018 30.06 847 25.01 4.1 39.4 82 1.2 34.2
08:55 1018 30.06 847 25.01 4 39.1 82 1.2 34.2
09:00 1018 30.06 847 25.01 3.8 38.9 82 1.1 34
09:05 1018 30.06 847 25.01 3.8 38.9 81 0.9 33.6
09:10 1018 30.06 847 25.01 3.9 38.9 80 0.7 33.3
09:15 1018 30.06 847 25.01 3.9 39.1 80 0.9 33.6
09:20 1018 30.06 847 25.01 4.1 39.5 78 0.6 33.2
09:25 1018 30.06 847 25.01 4.2 39.6 79 0.9 33.6
09:30 1018 30.06 847 25.01 4.3 39.8 80 1.2 34.1
09:35 1018 30.06 847 25.01 4.4 39.9 81 1.5 34.7
09:40 1018 30.06 847 25.01 4.5 40.1 82 1.6 35
09:45 1018 30.06 847 25.01 4.3 39.8 83 1.7 35.1
09:50 1018 30.06 847 25.01 4.4 40 82 1.6 34.8
09:55 1018 30.06 847 25.01 4.5 40.2 81 1.6 35
10:00 1018 30.06 847 25.01 4.7 40.4 81 1.6 34.9
10:05 1018 30.06 847 25.01 4.6 40.4 81 1.7 35
10:10 1018 30.06 847 25.01 4.5 40.1 82 1.7 35.1
10:15 1018 30.06 847 25.01 4.4 40 82 1.5 34.8
10:20 1018 30.06 847 25.01 4.5 40 82 1.7 35
10:25 1018 30.06 847 25.01 4.7 40.5 80 1.6 34.9
10:30 1018 30.06 847 25.01 5.1 41.1 80 1.9 35.4
10:35 1018 30.06 847 25.01 5.2 41.4 79 2 35.5
10:40 1018 30.06 847 25.01 5.2 41.3 79 1.8 35.3
10:45 1018 30.06 847 25.01 5.2 41.3 77 1.5 34.6
10:50 1018 30.06 847 25.01 5.1 41.1 76 1.3 34.3
10:55 1018 30.06 847 25.01 5.2 41.3 76 1.3 34.3
11:00 1018 30.06 847 25.01 5.1 41.2 76 1.2 34.1
11:05 1018 30.06 847 25.01 5.3 41.5 76 1.4 34.5
11:10 1018 30.06 847 25.01 5.4 41.7 72 0.7 33.3
11:15 1018 30.06 847 25.01 5.8 42.5 71 0.9 33.7
11:20 1018 30.06 847 25.01 6.3 43.3 65 0.3 32.5
11:25 1018 30.06 847 25.01 6.7 44.1 63 0.1 32.2
11:30 1018 30.06 847 25.01 7 44.6 58 -0.8 30.6
11:35 1018 30.06 847 25.01 7.1 44.7 60 -0 31.9
11:40 1018 30.06 847 25.01 7.4 45.3 54 -1.2 29.9
11:45 1018 30.06 847 25.01 7.5 45.5 50 -2.1 28.2
11:50 1018 30.06 847 25.01 7.1 44.9 53 -1.9 28.6
11:55 1018 30.06 847 25.01 7.4 45.3 51 -2.1 28.2
12:00 1018 30.06 847 25.01 7.8 46 53 -1.3 29.7
12:05 1018 30.06 847 25.01 7.2 44.9 56 -0.9 30.3
12:10 1017 30.03 847 25.01 6.9 44.4 56 -1.3 29.7
12:15 1017 30.03 847 25.01 6.6 43.9 57 -1.2 29.9
12:20 1017 30.03 847 25.01 6.7 44 58 -0.9 30.4
12:25 1017 30.03 847 25.01 7 44.5 44 -4.3 24.3
12:30 1017 30.03 847 25.01 7.2 44.9 46 -3.6 25.5
12:35 1017 30.03 847 25.01 7.5 45.6 45 -3.6 25.6
12:40 1017 30.03 846 24.98 7.5 45.5 46 -3.5 25.8
12:45 1017 30.03 846 24.98 7.7 45.8 44 -3.8 25.2
12:50 1017 30.03 846 24.98 7.8 46 46 -3.1 26.4
12:55 1017 30.03 846 24.98 8 46.3 37 -5.9 21.3
13:00 1017 30.03 846 24.98 7.4 45.4 41 -5 23
13:05 1017 30.03 846 24.98 7.7 45.9 41 -4.8 23.4
13:10 1017 30.03 846 24.98 7.8 46.1 42 -4.4 24.1
13:15 1017 30.03 846 24.98 7.8 46 45 -3.4 25.9
13:20 1017 30.03 846 24.98 7 44.6 47 -3.6 25.5
13:25 1017 30.03 846 24.98 7.5 45.6 45 -3.7 25.3
13:30 1017 30.03 846 24.98 7.8 46 45 -3.6 25.6
13:35 1017 30.03 846 24.98 8.1 46.5 43 -3.6 25.5
13:40 1017 30.03 846 24.98 8 46.4 43 -3.7 25.4
13:45 1016 30 846 24.98 7.8 46.1 46 -3.2 26.3
13:50 1016 30 846 24.98 7.8 46 44 -3.8 25.2
13:55 1016 30 846 24.98 8.6 47.5 42 -3.7 25.4
14:00 1016 30 845 24.95 8.5 47.3 42 -3.6 25.6
14:05 1016 30 845 24.95 8.1 46.6 44 -3.4 25.8
14:10 1016 30 845 24.95 8.1 46.5 42 -4 24.8
14:15 1016 30 845 24.95 8.6 47.5 40 -4.2 24.4
14:20 1016 30 845 24.95 8.6 47.5 41 -3.7 25.3
14:25 1016 30 845 24.95 8.9 48.1 41 -3.6 25.5
14:30 1016 30 845 24.95 9.1 48.4 41 -3.5 25.6
14:35 1016 30 845 24.95 9 48.2 40 -3.7 25.3
14:40 1016 30 845 24.95 8.8 47.8 42 -3.5 25.6
14:45 1016 30 845 24.95 8.7 47.7 41 -3.8 25.2
14:50 1016 30 845 24.95 8.5 47.2 40 -4.3 24.3
14:55 1016 30 845 24.95 8.8 47.8 41 -3.6 25.4
15:00 1016 30 845 24.95 9.4 48.9 38 -4.2 24.4
15:05 1015 29.97 845 24.95 9.6 49.2 37 -4.5 23.9
15:10 1015 29.97 845 24.95 9.6 49.2 38 -4.1 24.6
15:15 1015 29.97 845 24.95 9 48.2 39 -4.3 24.3
15:20 1015 29.97 844 24.92 9.6 49.3 37 -4.5 24
15:25 1015 29.97 844 24.92 10.1 50.2 35 -4.7 23.6
15:30 1015 29.97 844 24.92 10.3 50.6 34 -4.8 23.3
15:35 1015 29.97 844 24.92 11 51.7 32 -4.9 23.1
15:40 1015 29.97 844 24.92 11.4 52.4 32 -4.8 23.4
15:45 1015 29.97 844 24.92 11 51.7 33 -4.7 23.6
15:50 1015 29.97 844 24.92 10.4 50.7 33 -5.1 22.8
15:55 1015 29.97 844 24.92 10.6 51.1 33 -5 23.1
16:00 1015 29.97 844 24.92 9.9 49.8 35 -4.7 23.6
16:05 1015 29.97 844 24.92 9.5 49.1 36 -4.7 23.5
16:10 1015 29.97 844 24.92 9.6 49.3 37 -4.5 23.8
16:15 1015 29.97 844 24.92 9.3 48.7 37 -4.5 23.9
16:20 1015 29.97 844 24.92 9.6 49.3 37 -4.5 23.9
16:25 1015 29.97 844 24.92 9.4 48.8 37 -4.7 23.5
16:30 1015 29.97 844 24.92 9.5 49.1 35 -5.1 22.9
16:35 1015 29.97 844 24.92 10.3 50.5 33 -5.4 22.4
16:40 1015 29.97 844 24.92 10.9 51.6 33 -4.8 23.3
16:45 1015 29.97 844 24.92 10.7 51.3 34 -4.6 23.6
16:50 1015 29.97 844 24.92 9.9 49.9 34 -5.3 22.5
16:55 1015 29.97 844 24.92 10.3 50.5 33 -5.5 22.2
17:00 1015 29.97 844 24.92 10.3 50.6 34 -4.8 23.4
17:05 1015 29.97 844 24.92 9.4 49 35 -5.3 22.5
17:10 1014 29.94 844 24.92 10.2 50.3 32 -5.6 21.9
17:15 1014 29.94 844 24.92 10.6 51 33 -5 23.1
17:20 1014 29.94 844 24.92 10.2 50.3 33 -5.3 22.5
17:25 1014 29.94 844 24.92 10 49.9 34 -5.3 22.5
17:30 1014 29.94 844 24.92 9.9 49.8 34 -5.3 22.5
17:35 1014 29.94 844 24.92 9.8 49.6 34 -5.3 22.5
17:40 1014 29.94 844 24.92 10.1 50.2 33 -5.3 22.4
17:45 1014 29.94 844 24.92 10 50 35 -4.9 23.2
17:50 1014 29.94 844 24.92 10.2 50.4 33 -5.3 22.4
17:55 1014 29.94 844 24.92 10.2 50.3 33 -5.2 22.6
18:00 1014 29.94 844 24.92 9.6 49.2 34 -5.4 22.4
18:05 1014 29.94 844 24.92 9.3 48.7 35 -5.2 22.6
18:10 1014 29.94 844 24.92 9.3 48.8 34 -5.9 21.4
18:15 1014 29.94 844 24.92 10 50 33 -5.6 21.9
18:20 1014 29.94 844 24.92 10 50.1 33 -5.3 22.4
18:25 1014 29.94 844 24.92 9.8 49.6 33 -5.6 21.8
18:30 1014 29.94 844 24.92 9.3 48.7 34 -5.7 21.8
18:35 1014 29.94 844 24.92 9.2 48.5 35 -5.7 21.8
18:40 1014 29.94 844 24.92 9.3 48.8 34 -5.7 21.7
18:45 1014 29.94 844 24.92 9.2 48.6 35 -5.5 22.1
18:50 1014 29.94 844 24.92 9.3 48.8 34 -5.6 21.9
18:55 1015 29.97 844 24.92 9.3 48.7 34 -5.7 21.7
19:00 1015 29.97 844 24.92 8.9 47.9 36 -5.4 22.2
19:05 1015 29.97 844 24.92 8.5 47.3 37 -5.3 22.5
19:10 1015 29.97 844 24.92 8.7 47.6 37 -5.3 22.5
19:15 1015 29.97 844 24.92 8.8 47.9 35 -5.6 21.9
19:20 1015 29.97 844 24.92 8.3 47 36 -5.7 21.7
19:25 1015 29.97 844 24.92 8.1 46.6 37 -5.7 21.8
19:30 1015 29.97 844 24.92 8 46.4 37 -5.8 21.6
19:35 1015 29.97 844 24.92 7.9 46.3 38 -5.7 21.8
19:40 1015 29.97 844 24.92 7.8 46.1 38 -5.6 21.8
19:45 1015 29.97 844 24.92 7.8 46 38 -5.6 21.9
19:50 1015 29.97 844 24.92 7.7 45.9 39 -5.3 22.4
19:55 1015 29.97 844 24.92 7.5 45.5 53 -1.4 29.4
20:00 1015 29.97 844 24.92 6.6 43.8 57 -1.4 29.6
20:05 1015 29.97 844 24.92 6.1 43.1 61 -0.8 30.5
20:10 1015 29.97 844 24.92 5.8 42.5 62 -0.8 30.6
20:15 1015 29.97 844 24.92 5.6 42.2 62 -1 30.2
20:20 1015 29.97 844 24.92 5.5 41.9 63 -1 30.1
20:25 1015 29.97 844 24.92 5.3 41.6 65 -0.8 30.5
20:30 1015 29.97 844 24.92 5.2 41.3 65 -0.9 30.3
20:35 1015 29.97 844 24.92 5 41 65 -0.9 30.3
20:40 1015 29.97 844 24.92 4.9 40.8 67 -0.7 30.8
20:45 1015 29.97 844 24.92 4.6 40.3 69 -0.6 30.9
20:50 1015 29.97 844 24.92 4.3 39.8 69 -0.8 30.6
20:55 1015 29.97 844 24.92 4.1 39.4 70 -0.8 30.5
21:00 1015 29.97 845 24.95 4 39.2 71 -0.8 30.5
21:05 1015 29.97 845 24.95 3.9 39.1 71 -0.9 30.4
21:10 1015 29.97 845 24.95 3.9 39 71 -0.9 30.5
21:15 1015 29.97 845 24.95 3.9 39 71 -1 30.3
21:20 1015 29.97 845 24.95 3.9 39 71 -0.9 30.3
21:25 1016 30 845 24.95 3.8 38.9 71 -1 30.3
21:30 1016 30 845 24.95 3.8 38.8 71 -1 30.2
21:35 1016 30 845 24.95 3.8 38.8 71 -1 30.2
21:40 1016 30 845 24.95 3.7 38.6 71 -1.1 30
21:45 1016 30 845 24.95 3.6 38.4 72 -1 30.1
21:50 1016 30 845 24.95 3.3 37.9 72 -1.2 29.9
21:55 1016 30 845 24.95 3.1 37.6 73 -1.2 29.8
22:00 1015 29.97 845 24.95 2.9 37.3 74 -1.3 29.6
22:05 1015 29.97 845 24.95 2.9 37.2 74 -1.4 29.6
22:10 1015 29.97 845 24.95 2.8 37 74 -1.4 29.5
22:15 1015 29.97 845 24.95 2.9 37.1 73 -1.4 29.4
22:20 1015 29.97 845 24.95 2.9 37.3 73 -1.4 29.5
22:25 1015 29.97 845 24.95 3 37.3 73 -1.5 29.4
22:30 1016 30 845 24.95 3 37.4 72 -1.5 29.3
22:35 1016 30 845 24.95 2.9 37.1 73 -1.6 29.2
22:40 1015 29.97 845 24.95 2.8 37 74 -1.4 29.4
22:45 1015 29.97 845 24.95 2.6 36.7 74 -1.6 29.2
22:50 1015 29.97 845 24.95 2.6 36.8 74 -1.6 29.1
22:55 1015 29.97 845 24.95 2.5 36.4 75 -1.6 29.1
23:00 1016 30 845 24.95 2.2 36 75 -1.8 28.8
23:05 1016 30 845 24.95 2.2 36 75 -1.8 28.8
23:10 1016 30 845 24.95 2.2 36 74 -1.9 28.6
23:15 1016 30 845 24.95 2.3 36.2 74 -1.9 28.6
23:20 1016 30 845 24.95 2.4 36.3 73 -1.9 28.5
23:25 1016 30 845 24.95 2.4 36.4 73 -1.9 28.6
23:30 1016 30 845 24.95 2.4 36.4 73 -1.9 28.6
23:35 1016 30 845 24.95 2.3 36.2 73 -2 28.3
23:40 1016 30 845 24.95 2.4 36.4 72 -2.1 28.1
23:45 1016 30 845 24.95 2.4 36.4 72 -2.1 28.2
23:50 1016 30 845 24.95 2.4 36.3 71 -2.3 27.9
23:55 1016 30 845 24.95 2.2 36 71 -2.4 27.6
24:00 1016 30 845 24.95 2.1 35.8 73 -2.2 28